Time;durP1;ratioP1;P1;durP2;ratioP2;P2;SDS_P1;SDS_P2;PMS_P1;PMS_P2;Temp;Humidity;BMP_temperature;BMP_pressure;BME280_temperature;BME280_humidity;BME280_pressure;Samples;Min_cycle;Max_cycle;Signal;HPM_P1;HPM_P2
2022/05/20 00:00:23;;;;;;;7.22;3.67;;;;;;;16.41;44.27;98742.19;5030404;28;20474;-75
2022/05/20 00:02:48;;;;;;;10.55;3.75;;;;;;;16.24;45.17;98742.84;5030383;28;20026;-75
2022/05/20 00:05:15;;;;;;;5.10;3.50;;;;;;;16.15;46.19;98736.44;5030475;28;20030;-75
2022/05/20 00:07:41;;;;;;;6.97;3.47;;;;;;;16.14;47.46;98740.31;5030232;28;20029;-75
2022/05/20 00:10:09;;;;;;;5.28;3.38;;;;;;;16.07;47.36;98735.25;5030341;28;20037;-75
2022/05/20 00:12:35;;;;;;;4.47;2.70;;;;;;;15.98;48.21;98745.38;5030300;28;20453;-75
2022/05/20 00:15:00;;;;;;;5.65;2.72;;;;;;;15.83;48.82;98737.47;5030040;28;20057;-76
2022/05/20 00:17:25;;;;;;;7.57;3.03;;;;;;;15.78;50.10;98734.00;5030171;28;20021;-75
2022/05/20 00:19:52;;;;;;;3.92;2.97;;;;;;;15.80;49.57;98727.03;5029907;28;20028;-74
2022/05/20 00:22:18;;;;;;;4.20;2.63;;;;;;;15.77;50.23;98737.88;5029833;28;20037;-75
2022/05/20 00:27:29;;;;;;;5.13;2.97;;;;;;;15.60;50.67;98727.47;5031916;28;20505;-76
2022/05/20 00:29:57;;;;;;;4.88;2.70;;;;;;;15.64;51.09;98728.50;5032613;28;20029;-76
2022/05/20 00:32:22;;;;;;;4.80;2.38;;;;;;;15.74;50.99;98733.81;5029861;28;20025;-76
2022/05/20 00:34:48;;;;;;;5.28;3.03;;;;;;;15.63;51.11;98726.06;5030043;28;20040;-76
2022/05/20 00:37:13;;;;;;;7.65;3.05;;;;;;;15.66;51.65;98742.00;5030125;28;20512;-75
2022/05/20 00:39:39;;;;;;;6.03;2.75;;;;;;;15.64;51.51;98749.75;5029953;28;20525;-76
2022/05/20 00:42:13;;;;;;;4.45;2.67;;;;;;;15.61;51.89;98745.66;5030157;28;20104;-76
2022/05/20 00:44:38;;;;;;;3.33;2.40;;;;;;;15.54;51.14;98734.22;5030180;28;20025;-76
2022/05/20 00:47:04;;;;;;;4.53;2.33;;;;;;;15.54;51.21;98734.22;5029856;28;20036;-76
2022/05/20 00:49:31;;;;;;;7.55;3.25;;;;;;;15.53;51.44;98727.09;5029852;28;20032;-75
2022/05/20 00:51:58;;;;;;;9.00;3.60;;;;;;;15.41;51.30;98729.53;5029885;28;20025;-75
2022/05/20 00:54:33;;;;;;;5.65;3.03;;;;;;;15.41;51.51;98737.81;5030501;28;20030;-77
2022/05/20 00:57:36;;;;;;;7.28;3.58;;;;;;;15.45;51.59;98730.53;5031639;28;20069;-77
2022/05/20 01:00:10;;;;;;;5.70;3.20;;;;;;;15.36;52.89;98730.44;4979117;28;20548;-76
2022/05/20 01:02:37;;;;;;;11.25;4.45;;;;;;;15.33;53.60;98713.72;5005769;28;20151;-75
2022/05/20 01:05:07;;;;;;;5.88;3.28;;;;;;;15.38;54.17;98724.66;5010298;28;20038;-75
2022/05/20 01:07:38;;;;;;;7.70;3.03;;;;;;;15.43;54.79;98727.28;5010263;28;20026;-75
2022/05/20 01:10:05;;;;;;;5.10;3.10;;;;;;;15.39;54.67;98718.00;5010067;28;20022;-75
2022/05/20 01:12:30;;;;;;;5.75;2.80;;;;;;;15.26;55.25;98718.81;5010379;28;20022;-74
2022/05/20 01:14:55;;;;;;;5.45;3.28;;;;;;;15.18;55.24;98708.50;5009845;28;20248;-75
2022/05/20 01:17:21;;;;;;;7.07;3.15;;;;;;;15.22;55.67;98720.56;5010021;28;20113;-76
2022/05/20 01:19:54;;;;;;;8.30;4.18;;;;;;;15.06;56.10;98703.53;5008609;28;20103;-74
2022/05/20 01:23:01;;;;;;;8.35;4.47;;;;;;;15.19;56.39;98723.94;5009625;28;20137;-75
2022/05/20 01:25:29;;;;;;;9.18;4.20;;;;;;;14.93;57.39;98702.38;5009843;28;20487;-75
2022/05/20 01:27:56;;;;;;;6.43;3.70;;;;;;;15.02;58.25;98732.78;5010230;28;20433;-75
2022/05/20 01:30:24;;;;;;;7.18;4.22;;;;;;;15.10;58.14;98723.03;5012184;28;20079;-75
2022/05/20 01:32:50;;;;;;;6.03;3.40;;;;;;;14.91;59.16;98706.56;5027704;28;20021;-74
2022/05/20 01:35:33;;;;;;;7.97;3.80;;;;;;;14.95;59.62;98700.13;5029795;28;20029;-75
2022/05/20 01:37:59;;;;;;;6.47;3.53;;;;;;;14.96;60.12;98698.19;5031126;28;20033;-75
2022/05/20 01:40:27;;;;;;;6.65;4.45;;;;;;;14.86;60.95;98712.16;5033636;28;20117;-75
2022/05/20 01:43:02;;;;;;;5.95;3.67;;;;;;;14.78;61.77;98705.44;5035999;28;20505;-77
2022/05/20 01:45:42;;;;;;;5.25;3.55;;;;;;;14.75;62.09;98708.81;5033437;28;20028;-74
2022/05/20 01:48:21;;;;;;;4.93;3.25;;;;;;;14.75;62.65;98711.56;5033063;28;20029;-75
2022/05/20 01:50:53;;;;;;;8.25;3.60;;;;;;;14.74;63.37;98717.34;5033075;28;20033;-76
2022/05/20 01:53:51;;;;;;;5.97;3.50;;;;;;;14.70;63.63;98719.06;5033051;28;20057;-75
2022/05/20 01:56:20;;;;;;;6.50;3.38;;;;;;;14.61;64.38;98716.22;5021018;28;20506;-75
2022/05/20 01:59:09;;;;;;;5.57;3.63;;;;;;;14.61;64.09;98705.19;5032883;28;20033;-74
2022/05/20 02:01:44;;;;;;;5.38;3.45;;;;;;;14.45;65.03;98696.38;5032660;28;20029;-76
2022/05/20 02:04:17;;;;;;;11.38;4.00;;;;;;;14.58;64.93;98711.31;5032659;28;20559;-75
2022/05/20 02:06:49;;;;;;;7.57;3.67;;;;;;;14.56;64.77;98707.22;5033157;28;20045;-75
2022/05/20 02:09:26;;;;;;;6.25;3.78;;;;;;;14.60;64.98;98713.78;5032272;28;20033;-75
2022/05/20 02:11:54;;;;;;;5.40;3.72;;;;;;;14.56;65.41;98707.22;5029864;28;20026;-75
2022/05/20 02:14:52;;;;;;;6.45;3.63;;;;;;;14.63;64.91;98716.72;5032361;28;20143;-75
2022/05/20 02:17:24;;;;;;;6.40;3.70;;;;;;;14.65;64.44;98728.25;4998872;28;20128;-75
2022/05/20 02:20:13;;;;;;;4.78;3.45;;;;;;;14.66;63.86;98729.88;5032248;28;20017;-74
2022/05/20 02:22:44;;;;;;;8.25;3.67;;;;;;;14.60;64.14;98714.56;5030792;28;20034;-75
2022/05/20 02:25:19;;;;;;;6.43;3.90;;;;;;;14.55;64.43;98717.41;5032473;28;20543;-74
2022/05/20 02:27:48;;;;;;;5.95;3.53;;;;;;;14.50;63.94;98708.44;5032806;28;20030;-74
2022/05/20 02:30:23;;;;;;;6.85;3.92;;;;;;;14.37;64.50;98707.28;5032337;28;20021;-74
2022/05/20 02:33:03;;;;;;;6.78;3.53;;;;;;;14.40;64.43;98720.44;5032049;28;20034;-74
2022/05/20 02:35:29;;;;;;;5.25;3.40;;;;;;;14.40;63.98;98713.00;5031994;28;20103;-73
2022/05/20 02:37:54;;;;;;;6.20;3.20;;;;;;;14.40;62.40;98707.50;5031069;28;20029;-74
2022/05/20 02:40:21;;;;;;;4.30;3.00;;;;;;;14.43;61.88;98714.34;5031378;28;20025;-75
2022/05/20 02:42:47;;;;;;;10.80;4.00;;;;;;;14.34;61.57;98705.97;5032293;28;20053;-74
2022/05/20 02:45:13;;;;;;;6.20;3.50;;;;;;;14.45;61.62;98709.34;5031388;28;20119;-74
2022/05/20 02:47:39;;;;;;;6.70;3.20;;;;;;;14.43;61.37;98706.91;5031481;28;20021;-74
2022/05/20 02:50:10;;;;;;;6.65;3.35;;;;;;;14.47;59.80;98718.13;5031833;28;20025;-73
2022/05/20 02:52:37;;;;;;;5.50;3.40;;;;;;;14.41;59.52;98711.88;5031872;28;20026;-75
2022/05/20 02:55:04;;;;;;;7.80;3.45;;;;;;;14.34;59.61;98722.47;5033803;28;20033;-75
2022/05/20 02:57:30;;;;;;;7.25;3.70;;;;;;;14.25;59.61;98712.41;5036524;28;20519;-76
2022/05/20 03:05:24;;;;;;;6.22;3.70;;;;;;;14.05;60.18;98715.47;5033563;28;20194;-76
2022/05/20 03:07:49;;;;;;;10.82;3.63;;;;;;;14.06;60.59;98709.69;5023922;28;20491;-75
2022/05/20 03:10:15;;;;;;;6.40;3.22;;;;;;;14.13;61.05;98709.28;5011673;28;20033;-74
2022/05/20 03:12:41;;;;;;;5.35;3.15;;;;;;;14.15;60.32;98712.56;5011413;28;20072;-74
2022/05/20 03:15:10;;;;;;;7.22;2.85;;;;;;;14.16;60.35;98715.00;5010290;28;20034;-75
2022/05/20 03:17:36;;;;;;;6.85;3.70;;;;;;;14.16;60.95;98705.97;5011563;28;20038;-74
2022/05/20 03:20:03;;;;;;;10.02;3.78;;;;;;;13.99;62.30;98714.75;5018134;28;20033;-75
2022/05/20 03:22:29;;;;;;;8.13;3.92;;;;;;;14.03;62.74;98714.97;5027980;28;20018;-74
2022/05/20 03:24:54;;;;;;;6.60;3.63;;;;;;;13.86;63.09;98699.81;5030564;28;20040;-74
2022/05/20 03:27:20;;;;;;;10.18;3.30;;;;;;;13.85;63.55;98714.66;5031373;28;20025;-74
2022/05/20 03:29:46;;;;;;;6.15;3.33;;;;;;;13.78;63.72;98708.72;5030861;28;20068;-75
2022/05/20 03:32:12;;;;;;;6.28;3.35;;;;;;;13.79;62.80;98704.84;5030831;28;20025;-74
2022/05/20 03:34:40;;;;;;;6.45;3.22;;;;;;;13.85;61.19;98709.16;5030696;28;20033;-75
2022/05/20 03:37:06;;;;;;;5.25;3.17;;;;;;;13.86;60.62;98694.31;5030801;28;20029;-74
2022/05/20 03:39:31;;;;;;;5.03;3.30;;;;;;;13.81;61.23;98699.06;5030798;28;20025;-74
2022/05/20 03:41:57;;;;;;;5.78;3.70;;;;;;;13.93;61.95;98714.00;5030582;28;20023;-74
2022/05/20 03:44:23;;;;;;;5.70;3.80;;;;;;;13.93;61.98;98710.44;5030776;28;20110;-75
2022/05/20 03:46:53;;;;;;;7.35;3.58;;;;;;;13.92;62.33;98722.53;5046056;28;20060;-75
2022/05/20 03:49:20;;;;;;;10.20;4.03;;;;;;;14.11;61.81;98719.78;5030741;28;20025;-74
2022/05/20 03:51:51;;;;;;;6.90;3.10;;;;;;;14.09;61.48;98727.53;5030707;28;20552;-74
2022/05/20 03:54:19;;;;;;;5.75;3.30;;;;;;;14.12;61.06;98729.69;5038291;28;20097;-83
2022/05/20 03:56:45;;;;;;;6.57;3.65;;;;;;;14.09;62.02;98719.28;5046003;28;20044;-81
2022/05/20 03:59:14;;;;;;;8.48;3.80;;;;;;;14.08;62.28;98723.94;5043410;28;20120;-79
2022/05/20 04:01:56;;;;;;;7.38;3.60;;;;;;;14.08;64.74;98723.13;5038615;28;20477;-82
2022/05/20 04:04:23;;;;;;;8.90;3.83;;;;;;;14.12;67.06;98718.69;5043413;28;20548;-80
2022/05/20 04:06:49;;;;;;;7.53;3.90;;;;;;;14.18;68.12;98712.78;5039866;28;20025;-80
2022/05/20 04:09:14;;;;;;;11.23;5.03;;;;;;;14.25;68.54;98723.41;5037541;28;20030;-79
2022/05/20 04:11:40;;;;;;;10.55;4.53;;;;;;;14.27;69.15;98726.69;5039966;28;20017;-82
2022/05/20 04:14:06;;;;;;;11.85;4.68;;;;;;;14.28;69.41;98726.38;5042412;28;20057;-82
2022/05/20 04:16:31;;;;;;;12.38;4.63;;;;;;;14.28;69.49;98726.38;5040379;28;20052;-81
2022/05/20 04:18:57;;;;;;;9.90;5.00;;;;;;;14.31;69.08;98711.22;5040752;28;20025;-81
2022/05/20 04:21:23;;;;;;;14.18;6.43;;;;;;;14.34;69.40;98732.66;5040565;28;20024;-81
2022/05/20 04:23:48;;;;;;;13.88;6.85;;;;;;;14.34;69.16;98713.38;5038386;28;20021;-80
2022/05/20 04:26:14;;;;;;;7.85;4.88;;;;;;;14.33;69.62;98731.00;5037524;28;20034;-81
2022/05/20 04:28:40;;;;;;;16.23;5.70;;;;;;;14.44;69.73;98726.97;5036346;28;20448;-82
2022/05/20 04:31:07;;;;;;;9.55;5.38;;;;;;;14.46;69.87;98730.25;5056845;28;20033;-82
2022/05/20 04:33:33;;;;;;;10.75;4.85;;;;;;;14.54;69.30;98724.03;5052918;28;20042;-81
2022/05/20 04:35:58;;;;;;;12.43;4.47;;;;;;;14.72;69.67;98734.16;5051314;28;20025;-81
2022/05/20 04:38:24;;;;;;;7.97;4.45;;;;;;;14.72;69.64;98723.16;5036074;28;20040;-80
2022/05/20 04:46:56;;;;;;;6.35;4.68;;;;;;;14.74;69.70;98737.47;5038046;28;20022;-82
2022/05/20 04:49:08;;;;;;;5.95;3.80;;;;;;;14.74;69.25;98731.94;5042550;28;20444;-82
2022/05/20 04:51:34;;;;;;;7.13;3.60;;;;;;;14.92;69.36;98739.31;5042140;28;20025;-79
2022/05/20 04:56:43;;;;;;;10.18;4.78;;;;;;;15.25;67.04;98736.50;5039886;28;20052;-81
2022/05/20 04:59:09;;;;;;;6.65;4.07;;;;;;;15.26;66.71;98747.19;5035224;28;20038;-80
2022/05/20 05:01:34;;;;;;;6.72;4.57;;;;;;;15.29;66.88;98745.75;5034870;28;20092;-78
2022/05/20 05:04:00;;;;;;;7.75;4.10;;;;;;;15.35;66.20;98736.25;5032122;28;20462;-75
2022/05/20 05:06:25;;;;;;;5.18;3.55;;;;;;;15.30;65.52;98722.59;5039513;28;20037;-78
2022/05/20 05:08:53;;;;;;;7.72;4.28;;;;;;;15.51;65.57;98745.88;5035563;28;20478;-80
2022/05/20 05:11:20;;;;;;;5.55;4.30;;;;;;;15.53;65.41;98750.00;5040427;28;20026;-74
2022/05/20 05:13:45;;;;;;;7.47;4.35;;;;;;;15.56;65.49;98737.53;5038117;28;20442;-76
2022/05/20 05:16:11;;;;;;;10.60;5.18;;;;;;;15.70;65.22;98737.47;5034876;28;20079;-79
2022/05/20 05:18:37;;;;;;;7.13;4.38;;;;;;;15.90;64.46;98748.91;5032660;28;20044;-77
2022/05/20 05:21:03;;;;;;;10.45;4.28;;;;;;;15.96;63.51;98731.09;5034348;28;20021;-78
2022/05/20 05:23:31;;;;;;;6.93;3.97;;;;;;;16.04;62.41;98733.09;5034632;28;20043;-80
2022/05/20 05:25:58;;;;;;;7.13;3.72;;;;;;;16.25;62.21;98743.69;5033411;28;20442;-76
2022/05/20 05:28:23;;;;;;;11.35;4.47;;;;;;;16.37;61.64;98743.94;5034222;28;20026;-79
2022/05/20 05:30:51;;;;;;;6.80;4.22;;;;;;;16.52;62.89;98751.81;5033376;28;20029;-75
2022/05/20 05:33:19;;;;;;;10.48;4.38;;;;;;;16.70;60.92;98747.25;5033694;28;20028;-74
2022/05/20 05:35:44;;;;;;;11.52;4.53;;;;;;;16.64;59.92;98732.75;5032862;28;20363;-76
2022/05/20 05:38:10;;;;;;;10.10;4.60;;;;;;;16.75;59.82;98756.25;5029692;28;20025;-78
2022/05/20 05:40:36;;;;;;;8.18;4.45;;;;;;;16.73;59.19;98727.31;5065324;28;20100;-78
2022/05/20 05:43:03;;;;;;;8.45;4.95;;;;;;;16.87;58.80;98745.44;5032635;28;20075;-78
2022/05/20 05:45:30;;;;;;;9.38;4.10;;;;;;;16.94;59.25;98751.31;5029095;28;20056;-78
2022/05/20 05:48:09;;;;;;;11.32;5.25;;;;;;;16.99;60.99;98742.06;5032748;28;20514;-78
2022/05/20 05:50:37;;;;;;;9.85;6.55;;;;;;;17.41;58.34;98755.28;5032385;28;20029;-76
2022/05/20 05:53:21;;;;;;;13.52;5.90;;;;;;;17.64;59.95;98750.47;5034131;28;20041;-75
2022/05/20 05:55:53;;;;;;;13.32;6.47;;;;;;;17.79;58.58;98750.03;5033896;28;20068;-77
2022/05/20 05:58:18;;;;;;;17.52;8.10;;;;;;;18.01;56.94;98755.41;5033562;28;20043;-75
2022/05/20 06:00:44;;;;;;;14.15;7.28;;;;;;;18.14;57.63;98759.19;5032209;28;20029;-77
2022/05/20 06:03:09;;;;;;;15.38;7.05;;;;;;;18.13;58.60;98760.34;5033881;28;20025;-77
2022/05/20 06:05:35;;;;;;;14.23;6.18;;;;;;;18.16;58.66;98752.19;5035236;28;20824;-76
2022/05/20 06:08:02;;;;;;;8.75;4.53;;;;;;;18.31;58.83;98742.56;5040366;28;20124;-77
2022/05/20 06:10:31;;;;;;;14.07;5.85;;;;;;;18.46;60.59;98744.03;5036783;28;20390;-77
2022/05/20 06:12:57;;;;;;;9.20;5.13;;;;;;;18.46;61.11;98742.06;5033541;28;20053;-77
2022/05/20 06:15:22;;;;;;;12.40;4.50;;;;;;;18.55;61.05;98744.84;5032872;28;20037;-77
2022/05/20 06:17:49;;;;;;;18.85;4.90;;;;;;;18.70;60.43;98753.47;5048776;28;20030;-78
2022/05/20 06:20:15;;;;;;;10.63;4.65;;;;;;;18.87;59.30;98752.63;5033213;28;20098;-76
2022/05/20 06:22:41;;;;;;;10.45;4.05;;;;;;;18.97;60.64;98759.78;5033282;28;20533;-77
2022/05/20 06:25:08;;;;;;;10.07;4.03;;;;;;;19.10;58.93;98758.78;5032120;28;20033;-77
2022/05/20 06:27:35;;;;;;;11.55;3.88;;;;;;;19.10;60.55;98756.81;5033636;28;20497;-78
2022/05/20 06:30:03;;;;;;;12.40;4.70;;;;;;;19.15;58.98;98764.13;5033340;28;20021;-78
2022/05/20 06:32:28;;;;;;;10.70;4.55;;;;;;;19.02;60.29;98754.88;5033204;28;20128;-76
2022/05/20 06:40:22;;;;;;;15.52;4.97;;;;;;;19.21;59.40;98751.72;5032950;28;20036;-79
2022/05/20 06:42:48;;;;;;;13.88;5.63;;;;;;;19.25;59.27;98756.28;5033433;28;20025;-77
2022/05/20 06:45:14;;;;;;;21.65;6.70;;;;;;;19.37;59.02;98761.13;5033468;28;20395;-76
2022/05/20 06:47:40;;;;;;;22.83;4.80;;;;;;;19.39;60.24;98742.16;5033495;28;20688;-77
2022/05/20 06:50:08;;;;;;;16.25;4.22;;;;;;;19.55;57.21;98740.47;5033130;28;20027;-77
2022/05/20 06:52:34;;;;;;;12.07;4.65;;;;;;;19.67;57.55;98753.66;5033053;28;20485;-77
2022/05/20 06:55:01;;;;;;;11.73;4.65;;;;;;;19.67;57.68;98742.56;5032678;28;20028;-78
2022/05/20 06:57:26;;;;;;;16.70;4.63;;;;;;;19.66;57.68;98740.91;5032982;28;20050;-77
2022/05/20 06:59:52;;;;;;;14.30;5.43;;;;;;;19.70;58.91;98739.09;5032799;28;20051;-79
2022/05/20 07:02:18;;;;;;;16.38;4.95;;;;;;;20.02;56.96;98748.69;5032467;28;20029;-78
2022/05/20 07:04:43;;;;;;;14.10;4.68;;;;;;;20.21;55.52;98747.06;5032952;28;20026;-77
2022/05/20 07:07:09;;;;;;;15.85;4.95;;;;;;;20.36;55.30;98753.22;5032094;28;20029;-77
2022/05/20 07:09:35;;;;;;;11.80;5.35;;;;;;;20.34;55.87;98759.09;5032520;28;20367;-77
2022/05/20 07:12:01;;;;;;;9.05;4.68;;;;;;;20.40;55.71;98754.94;5047996;28;20371;-77
2022/05/20 07:14:27;;;;;;;12.30;5.07;;;;;;;20.64;55.44;98751.47;5032375;28;20037;-79
2022/05/20 07:16:52;;;;;;;15.18;4.97;;;;;;;20.85;55.11;98757.81;5032590;28;20112;-77
2022/05/20 07:19:18;;;;;;;10.82;4.75;;;;;;;21.20;54.28;98761.88;5035818;28;20089;-79
2022/05/20 07:21:43;;;;;;;11.52;3.92;;;;;;;21.34;53.73;98759.56;5033981;28;20025;-77
2022/05/20 07:24:09;;;;;;;12.43;4.55;;;;;;;21.47;53.98;98770.72;5047586;28;20493;-78
2022/05/20 07:26:35;;;;;;;9.32;4.13;;;;;;;21.48;53.35;98764.00;5031454;28;20474;-77
2022/05/20 07:29:03;;;;;;;13.23;4.72;;;;;;;21.69;53.04;98761.91;5032200;28;20049;-78
2022/05/20 07:31:28;;;;;;;6.45;3.88;;;;;;;21.86;52.90;98756.09;5032045;28;20045;-80
2022/05/20 07:33:54;;;;;;;7.13;3.95;;;;;;;21.86;53.22;98754.09;5031973;28;20068;-77
2022/05/20 07:36:20;;;;;;;9.00;4.72;;;;;;;21.70;53.93;98755.19;5032267;28;20022;-77
2022/05/20 07:38:45;;;;;;;10.43;3.78;;;;;;;21.83;52.99;98757.59;5031649;28;20021;-77
2022/05/20 07:41:12;;;;;;;7.57;4.32;;;;;;;21.88;52.39;98754.63;5032104;28;20025;-76
2022/05/20 07:43:39;;;;;;;8.50;4.25;;;;;;;22.06;51.68;98746.81;5031973;28;20075;-77
2022/05/20 07:46:05;;;;;;;10.57;4.63;;;;;;;22.21;51.33;98753.66;5031965;28;20508;-78
2022/05/20 07:48:32;;;;;;;9.27;3.83;;;;;;;22.46;50.82;98749.59;5030620;28;20108;-78
2022/05/20 07:51:12;;;;;;;7.78;3.92;;;;;;;22.20;50.73;98749.22;5031092;28;20061;-79
2022/05/20 07:53:49;;;;;;;8.88;4.20;;;;;;;22.26;51.27;98751.41;5034443;28;20083;-78
2022/05/20 07:56:20;;;;;;;7.35;3.40;;;;;;;22.68;51.27;98745.50;5031693;28;20058;-78
2022/05/20 07:58:53;;;;;;;6.13;3.40;;;;;;;23.11;49.30;98745.50;5031094;28;20026;-78
2022/05/20 08:01:22;;;;;;;10.75;4.03;;;;;;;23.18;48.01;98739.28;5031654;28;20044;-76
2022/05/20 08:06:39;;;;;;;6.07;3.22;;;;;;;23.65;47.89;98736.53;5031767;28;20032;-79
2022/05/20 08:09:06;;;;;;;6.68;3.95;;;;;;;24.13;46.21;98729.66;5031703;28;20030;-78
2022/05/20 08:11:32;;;;;;;6.05;3.78;;;;;;;24.33;44.90;98739.72;5030045;28;20029;-77
2022/05/20 08:13:58;;;;;;;8.35;3.70;;;;;;;24.81;44.08;98732.72;5030099;28;20037;-79
2022/05/20 08:16:23;;;;;;;6.88;3.20;;;;;;;25.03;43.46;98726.34;5030406;28;20413;-80
2022/05/20 08:18:49;;;;;;;8.18;4.00;;;;;;;24.98;43.71;98729.47;5031846;28;20088;-78
2022/05/20 08:21:14;;;;;;;9.85;3.92;;;;;;;25.22;43.66;98725.50;5055336;28;20114;-78
2022/05/20 08:23:40;;;;;;;8.40;3.75;;;;;;;25.49;41.92;98730.84;5034246;28;20033;-79
2022/05/20 08:26:05;;;;;;;9.05;3.50;;;;;;;25.69;43.41;98723.13;5031369;28;20449;-80
2022/05/20 08:28:30;;;;;;;5.13;3.70;;;;;;;25.99;43.19;98720.41;5031549;28;20486;-78
2022/05/20 08:30:56;;;;;;;6.45;3.50;;;;;;;26.70;41.07;98721.34;5031277;28;20474;-79
2022/05/20 08:33:21;;;;;;;6.85;3.20;;;;;;;27.35;40.45;98721.66;5031412;28;20112;-79
2022/05/20 08:35:47;;;;;;;5.82;3.00;;;;;;;27.53;39.62;98723.50;5045970;28;20029;-78
2022/05/20 08:38:12;;;;;;;9.55;2.97;;;;;;;28.09;38.32;98719.50;5046096;28;20056;-77
2022/05/20 08:40:47;;;;;;;4.63;3.00;;;;;;;28.37;38.22;98728.09;5031128;28;20079;-77
2022/05/20 08:43:13;;;;;;;7.82;2.65;;;;;;;28.62;37.15;98720.56;5046591;28;20113;-77
2022/05/20 08:45:39;;;;;;;9.77;3.28;;;;;;;28.43;37.90;98712.44;5031036;28;20029;-78
2022/05/20 08:48:08;;;;;;;4.70;2.72;;;;;;;28.57;37.70;98714.50;5031279;28;20025;-76
2022/05/20 08:50:43;;;;;;;3.33;2.58;;;;;;;29.14;37.57;98718.31;5030926;28;20557;-77
2022/05/20 08:53:21;;;;;;;4.97;2.70;;;;;;;29.32;37.28;98704.31;5031032;28;20025;-77
2022/05/20 08:55:46;;;;;;;3.85;2.85;;;;;;;29.44;36.77;98703.91;5031318;28;20033;-77
2022/05/20 08:58:17;;;;;;;6.38;3.22;;;;;;;29.36;36.79;98697.44;5031786;28;20379;-77
2022/05/20 09:00:43;;;;;;;4.65;3.03;;;;;;;29.18;36.67;98693.78;5031138;28;20060;-78
2022/05/20 09:03:09;;;;;;;3.90;3.10;;;;;;;29.04;37.39;98696.59;5031165;28;20033;-77
2022/05/20 09:05:38;;;;;;;4.78;2.60;;;;;;;29.76;36.19;98699.84;5048322;28;20053;-78
2022/05/20 09:08:25;;;;;;;4.53;3.10;;;;;;;28.43;37.79;98687.09;5033137;28;20032;-78
2022/05/20 09:10:56;;;;;;;12.35;2.97;;;;;;;28.62;38.01;98683.97;5031137;28;20039;-78
2022/05/20 09:13:21;;;;;;;3.50;3.05;;;;;;;28.34;39.56;98681.03;5030817;28;20026;-78
2022/05/20 09:15:58;;;;;;;4.40;3.13;;;;;;;29.19;37.58;98687.75;5031098;28;20037;-79
2022/05/20 09:18:36;;;;;;;6.35;3.30;;;;;;;29.41;38.36;98682.97;5031091;28;20043;-80
2022/05/20 09:21:02;;;;;;;4.07;3.00;;;;;;;29.26;38.87;98678.50;5031285;28;20029;-78
2022/05/20 09:23:29;;;;;;;5.75;3.42;;;;;;;29.57;37.90;98680.50;5037040;28;20032;-78
2022/05/20 09:25:57;;;;;;;5.93;3.83;;;;;;;28.97;38.55;98674.03;5040769;28;20022;-78
2022/05/20 09:28:34;;;;;;;3.72;2.80;;;;;;;29.39;38.30;98679.72;5031921;28;20029;-76
2022/05/20 09:31:12;;;;;;;4.78;3.03;;;;;;;29.85;38.06;98681.75;5030913;28;20501;-77
2022/05/20 09:33:38;;;;;;;4.70;3.15;;;;;;;29.97;37.37;98670.03;5030998;28;20026;-77
2022/05/20 09:36:05;;;;;;;4.63;3.00;;;;;;;29.49;37.51;98675.28;5030680;28;20048;-78
2022/05/20 09:38:30;;;;;;;4.75;3.33;;;;;;;28.66;39.70;98676.34;5030664;28;20032;-77
2022/05/20 09:40:55;;;;;;;3.85;3.00;;;;;;;29.01;38.89;98663.53;5030599;28;20389;-77
2022/05/20 09:43:25;;;;;;;5.70;3.25;;;;;;;29.04;39.13;98668.41;5030600;28;20032;-77
2022/05/20 09:45:51;;;;;;;5.50;3.10;;;;;;;28.69;39.43;98666.31;5030540;28;20116;-77
2022/05/20 09:48:36;;;;;;;3.63;2.90;;;;;;;28.99;39.72;98658.31;5046064;28;20075;-77
2022/05/20 09:51:30;;;;;;;6.18;3.65;;;;;;;29.71;38.27;98668.41;5032238;28;20034;-76
2022/05/20 09:54:10;;;;;;;5.05;3.60;;;;;;;29.68;37.53;98667.22;5034510;28;20025;-77
2022/05/20 09:56:41;;;;;;;3.97;2.90;;;;;;;30.17;37.40;98671.97;5034165;28;20406;-77
2022/05/20 09:59:35;;;;;;;6.13;3.03;;;;;;;29.80;38.07;98660.34;5034515;28;20029;-77
2022/05/20 10:02:07;;;;;;;5.75;3.25;;;;;;;29.17;38.06;98661.16;5032405;28;20471;-78
2022/05/20 10:04:44;;;;;;;4.82;3.13;;;;;;;28.68;39.34;98654.22;5034041;28;20034;-76
2022/05/20 10:07:15;;;;;;;4.10;3.20;;;;;;;28.82;39.42;98661.13;5032482;28;20429;-77
2022/05/20 10:09:53;;;;;;;5.32;3.35;;;;;;;29.46;39.11;98657.16;5033722;28;20064;-76
2022/05/20 10:12:28;;;;;;;6.28;3.67;;;;;;;29.70;38.59;98661.97;5034111;28;20086;-77
2022/05/20 10:14:59;;;;;;;;;;;;;;;29.62;37.50;98659.56;5034355;28;20167;-77
2022/05/20 10:17:42;;;;;;;4.80;3.20;;;;;;;29.66;37.84;98658.38;5033917;28;19952;-77
2022/05/20 10:20:28;;;;;;;4.18;3.28;;;;;;;29.46;38.34;98654.34;5037203;28;20534;-78
2022/05/20 10:23:30;;;;;;;5.88;3.10;;;;;;;29.39;38.09;98645.06;5041063;28;20041;-76
2022/05/20 10:26:07;;;;;;;3.78;3.20;;;;;;;29.22;38.29;98632.56;5033697;28;20033;-78
2022/05/20 10:34:25;;;;;;;6.82;3.40;;;;;;;29.99;36.92;98636.53;5039032;28;20463;-79
2022/05/20 10:37:01;;;;;;;5.40;3.00;;;;;;;29.77;37.03;98633.75;5039807;28;20072;-79
2022/05/20 10:40:10;;;;;;;4.22;3.63;;;;;;;29.89;36.82;98635.34;5032114;28;20037;-78
2022/05/20 10:43:13;;;;;;;5.63;3.80;;;;;;;29.73;37.52;98621.66;5048713;28;20029;-78
2022/05/20 10:49:06;;;;;;;9.02;3.00;;;;;;;29.23;38.27;98622.88;5033416;28;20056;-79
2022/05/20 10:51:47;;;;;;;5.95;2.83;;;;;;;28.76;39.26;98614.81;5032652;28;20033;-78
2022/05/20 10:54:35;;;;;;;4.60;3.10;;;;;;;28.43;39.27;98627.97;5032731;28;20065;-78
2022/05/20 10:57:34;;;;;;;3.78;2.92;;;;;;;28.23;39.78;98615.41;5026138;28;20097;-78
2022/05/20 11:00:03;;;;;;;6.80;3.40;;;;;;;28.38;39.92;98617.09;5048475;28;20104;-77
2022/05/20 11:02:46;;;;;;;4.28;3.03;;;;;;;28.39;40.12;98615.88;5032794;28;20020;-78
2022/05/20 11:05:39;;;;;;;5.13;2.92;;;;;;;28.68;40.43;98606.34;5032643;28;20060;-78
2022/05/20 11:08:08;;;;;;;6.28;3.38;;;;;;;28.95;39.84;98600.31;5048152;28;20026;-78
2022/05/20 11:10:43;;;;;;;3.92;3.00;;;;;;;29.25;39.21;98605.63;5032654;28;20071;-79
2022/05/20 11:13:09;;;;;;;4.05;2.88;;;;;;;29.29;38.25;98607.22;5032848;28;20095;-78
2022/05/20 11:15:56;;;;;;;6.93;3.63;;;;;;;29.40;39.21;98612.84;5032261;28;20478;-77
2022/05/20 11:18:55;;;;;;;4.45;2.90;;;;;;;29.24;38.45;98607.63;5048268;28;20044;-78
2022/05/20 11:21:50;;;;;;;7.20;3.05;;;;;;;28.92;39.26;98592.69;5032963;28;20092;-77
2022/05/20 11:24:25;;;;;;;4.88;3.30;;;;;;;28.86;39.13;98603.56;5048201;28;20033;-77
2022/05/20 11:26:50;;;;;;;4.72;3.00;;;;;;;29.09;38.89;98598.34;5033637;28;20049;-77
2022/05/20 11:29:41;;;;;;;8.05;3.22;;;;;;;29.05;38.78;98586.25;5034708;28;20398;-77
2022/05/20 11:32:11;;;;;;;3.38;2.90;;;;;;;28.97;39.40;98592.28;5045656;28;20043;-79
2022/05/20 11:34:42;;;;;;;7.03;4.03;;;;;;;28.84;39.69;98586.25;5041780;28;20029;-77
2022/05/20 11:37:27;;;;;;;5.18;3.22;;;;;;;29.13;39.44;98593.50;5032099;28;20109;-78
2022/05/20 11:40:18;;;;;;;7.20;2.83;;;;;;;28.37;39.72;98583.72;5032079;28;20033;-78
2022/05/20 11:42:59;;;;;;;3.75;2.72;;;;;;;28.41;40.38;98576.88;5031677;28;20116;-78
2022/05/20 11:45:42;;;;;;;4.80;3.42;;;;;;;28.57;40.35;98571.69;5031900;28;20032;-77
2022/05/20 11:48:14;;;;;;;5.15;3.28;;;;;;;28.73;40.11;98573.34;5030900;28;20033;-76
2022/05/20 11:50:45;;;;;;;5.05;3.08;;;;;;;28.83;40.32;98567.72;5032142;28;20025;-79
2022/05/20 11:53:18;;;;;;;4.60;2.88;;;;;;;28.79;40.23;98552.81;5031966;28;20036;-79
2022/05/20 11:55:53;;;;;;;6.70;3.40;;;;;;;28.66;40.42;98558.03;5030209;28;20068;-78
2022/05/20 11:58:24;;;;;;;6.00;3.50;;;;;;;28.66;40.43;98563.69;5048518;28;20057;-77
2022/05/20 12:00:53;;;;;;;5.45;3.38;;;;;;;28.84;40.06;98548.81;5051223;28;20042;-82
2022/05/20 12:03:22;;;;;;;4.72;2.95;;;;;;;28.93;39.71;98543.59;5024694;28;20091;-78
2022/05/20 12:05:50;;;;;;;3.78;3.13;;;;;;;28.87;40.01;98550.81;5034280;28;20065;-79
2022/05/20 12:08:37;;;;;;;8.77;3.47;;;;;;;28.82;39.73;98542.78;5035045;28;20026;-79
2022/05/20 12:11:27;;;;;;;3.55;2.83;;;;;;;28.87;40.42;98529.09;5033131;28;20033;-80
2022/05/20 12:14:03;;;;;;;4.40;2.70;;;;;;;28.96;40.33;98534.31;5031138;28;20025;-81
2022/05/20 12:16:30;;;;;;;4.82;2.90;;;;;;;28.96;40.02;98532.31;5033637;28;20037;-78
2022/05/20 12:25:30;;;;;;;9.75;3.08;;;;;;;29.00;39.74;98526.69;5032094;28;20108;-80
2022/05/20 12:28:23;;;;;;;4.03;2.83;;;;;;;28.98;40.07;98523.44;5032915;28;20033;-81